Latest Weather Observations for Mildura

IDV60801

Issued at 10:05 am EST Thursday 24 July 2014 (issued every 30 minutes, with the page automatically refreshed every 10 minutes)

About weather observations | Map of weather stations | Latest weather observations for VIC | Other Formats
Station Details ID: 076031 Name: MILDURA AIRPORT Lat: -34.24 Lon: 142.09 Height: 50.0 m
Data from the previous 72 hours. | See also: Recent months at Mildura
Date/Time
EST
Temp
°C
App
Temp
°C
Dew
Point
Rel
Hum
%
Delta-T
°C
Wind Press
QNH
hPa
Press
MSL
hPa
Rain
since 9 am
mm
Dir
 
Spd
km/h
Gust
km/h
Spd
kts
Gust
kts
24/10:00am 13.9 7.0 4.4 52 4.4 N 30 43 16 23 1011.6 1011.7 0.0
24/09:30am 13.5 7.0 4.6 55 4.1 N 28 44 15 24 1011.3 - 0.0
24/09:00am 12.4 7.0 6.3 66 2.9 NNE 24 32 13 17 1011.3 1011.4 3.4
24/08:30am 11.0 5.3 6.6 74 2.1 NNE 26 33 14 18 1011.3 - 3.4
24/08:00am 11.1 6.2 6.7 74 2.1 NNE 22 28 12 15 1011.3 1011.4 3.4
24/07:30am 10.9 6.5 6.7 75 2.0 NNE 19 26 10 14 1011.3 - 3.4
24/07:00am 10.8 6.5 6.8 76 1.9 NE 19 24 10 13 1011.2 1011.3 3.4
24/06:30am 10.6 6.1 7.0 78 1.7 NE 20 26 11 14 1011.3 - 3.4
24/06:00am 10.2 6.3 7.3 82 1.4 NE 17 22 9 12 1011.4 1011.5 3.4
24/05:30am 10.1 7.1 7.6 84 1.2 ENE 13 19 7 10 1011.6 - 3.4
24/05:00am 10.2 6.4 7.7 84 1.2 NE 17 19 9 10 1011.6 1011.7 3.4
24/04:30am 10.3 6.5 7.6 83 1.3 NE 17 24 9 13 1011.6 - 3.4
24/04:00am 10.1 6.0 7.8 86 1.1 NE 19 24 10 13 1011.9 1012.0 3.4
24/03:30am 9.7 6.7 7.8 88 0.9 ENE 13 19 7 10 1012.3 - 3.4
24/03:00am 9.6 7.6 8.8 95 0.4 ENE 9 11 5 6 1012.8 1012.9 3.4
24/02:30am 10.1 8.7 8.9 92 0.6 E 6 7 3 4 1013.1 - 3.4
24/02:00am 10.3 8.4 8.9 91 0.7 NE 9 15 5 8 1013.7 1013.8 3.2
24/01:30am 10.7 8.8 8.9 89 0.9 N 9 13 5 7 1014.5 - 2.6
24/01:00am 10.9 8.2 8.9 87 1.0 N 13 17 7 9 1014.9 1015.0 1.6
24/12:30am 11.4 9.4 8.6 83 1.4 NNW 9 19 5 10 1014.8 - 0.8
24/12:00am 12.3 8.6 6.4 67 2.8 N 15 22 8 12 1015.3 1015.4 0.0
 
Date/Time
EST
Temp
°C
App
Temp
°C
Dew
Point
Rel
Hum
%
Delta-T
°C
Wind Press
QNH
hPa
Press
MSL
hPa
Rain
since 9 am
mm
Dir
 
Spd
km/h
Gust
km/h
Spd
kts
Gust
kts
23/11:30pm 12.8 8.9 5.3 60 3.5 NNE 15 17 8 9 1015.0 - 0.0
23/11:00pm 13.4 9.4 4.8 56 4.0 NNE 15 19 8 10 1014.8 1014.9 0.0
23/10:30pm 13.0 9.4 4.8 57 3.8 ENE 13 19 7 10 1014.4 - 0.0
23/10:00pm 12.7 9.5 5.2 60 3.5 ENE 11 17 6 9 1014.6 1014.7 0.0
23/09:30pm 12.8 8.8 5.0 59 3.6 ENE 15 19 8 10 1014.9 - 0.0
23/09:00pm 12.0 9.2 5.0 62 3.2 ENE 9 13 5 7 1015.2 1015.3 0.0
23/08:30pm 11.8 8.6 5.1 63 3.1 E 11 15 6 8 1015.3 - 0.0
23/08:00pm 12.3 9.2 5.7 64 3.1 E 11 15 6 8 1015.6 1015.7 0.0
23/07:30pm 13.2 10.5 5.5 59 3.6 E 9 13 5 7 1015.7 - 0.0
23/07:00pm 13.5 10.8 5.7 59 3.7 E 9 13 5 7 1015.7 1015.8 0.0
23/06:30pm 13.7 11.4 5.7 58 3.8 E 7 9 4 5 1015.9 - 0.0
23/06:00pm 14.2 11.5 5.5 56 4.1 E 9 11 5 6 1015.9 1016.0 0.0
23/05:30pm 14.9 12.5 5.4 53 4.5 E 7 9 4 5 1016.1 - 0.0
23/05:00pm 15.5 12.8 5.7 52 4.7 NE 9 13 5 7 1016.3 1016.4 0.0
23/04:30pm 16.1 12.1 4.9 47 5.3 NNE 15 20 8 11 1016.3 - 0.0
23/04:00pm 16.4 11.3 3.9 43 5.8 N 20 26 11 14 1016.4 1016.5 0.0
23/03:30pm 16.6 12.2 4.5 44 5.7 N 17 22 9 12 1016.6 - 0.0
23/03:00pm 16.9 11.8 4.1 42 6.0 N 20 24 11 13 1016.9 1016.9 0.0
23/02:30pm 17.8 12.4 4.6 41 6.3 NNE 22 28 12 15 1017.2 - 0.0
23/02:00pm 17.5 12.1 4.4 42 6.2 N 22 30 12 16 1017.6 1017.6 0.0
23/01:30pm 16.8 11.7 4.2 43 5.9 NNE 20 28 11 15 1018.0 - 0.0
23/01:00pm 16.3 11.3 3.5 42 5.9 NNE 19 24 10 13 1018.6 1018.6 0.0
23/12:30pm 16.4 11.1 3.0 40 6.1 NNE 20 24 11 13 1019.2 - 0.0
23/12:00pm 14.9 10.5 2.9 44 5.4 NNE 15 20 8 11 1020.2 1020.3 0.0
23/11:30am 13.2 9.2 2.8 49 4.6 NE 13 19 7 10 1020.9 - 0.0
23/11:00am 11.5 7.1 2.7 54 3.8 NE 15 19 8 10 1021.4 1021.5 0.0
23/10:30am 10.2 6.6 2.7 59 3.2 ENE 11 15 6 8 1022.0 - 0.0
23/10:00am 9.1 5.4 2.2 62 2.9 ENE 11 17 6 9 1022.0 1022.1 0.0
23/09:30am 7.4 3.9 3.4 76 1.7 ENE 11 17 6 9 1022.0 - 0.0
23/09:00am 5.0 2.1 2.5 84 1.0 E 7 9 4 5 1022.0 1022.1 0.0
23/08:30am 3.6 0.6 2.1 90 0.6 E 7 9 4 5 1021.9 - 0.0
23/08:00am 3.1 -0.3 1.8 91 0.5 E 9 11 5 6 1021.9 1022.0 0.0
23/07:30am 2.8 -0.6 1.8 93 0.4 ENE 9 11 5 6 1021.8 - 0.0
23/07:00am 2.9 -0.5 1.9 93 0.4 E 9 13 5 7 1021.9 1022.0 0.0
23/06:30am 2.9 -0.1 2.1 94 0.3 E 7 11 4 6 1021.9 - 0.0
23/06:00am 2.9 -0.4 2.4 96 0.2 E 9 9 5 5 1022.0 1022.1 0.0
23/05:30am 2.8 -0.2 2.0 94 0.3 E 7 9 4 5 1022.0 - 0.0
23/05:00am 2.8 -0.2 2.3 96 0.2 E 7 9 4 5 1021.8 1021.9 0.0
23/04:30am 3.0 0.2 2.2 94 0.3 E 6 7 3 4 1022.0 - 0.0
23/04:00am 3.2 0.3 2.4 94 0.3 ENE 7 9 4 5 1022.3 1022.4 0.0
23/03:30am 3.1 -0.2 2.6 96 0.2 E 9 11 5 6 1022.3 - 0.0
23/03:00am 3.3 0.1 2.8 97 0.2 E 9 13 5 7 1022.5 1022.6 0.0
23/02:30am 2.9 -0.4 2.6 98 0.1 ESE 9 11 5 6 1022.7 - 0.0
23/02:00am 2.9 0.0 2.4 96 0.2 E 7 9 4 5 1022.7 1022.8 0.0
23/01:30am 3.1 -0.2 2.6 96 0.2 E 9 11 5 6 1022.9 - 0.0
23/01:00am 3.2 -0.1 2.4 94 0.3 E 9 11 5 6 1023.0 1023.1 0.0
23/12:30am 3.4 0.1 2.6 94 0.3 ESE 9 13 5 7 1022.9 - 0.0
23/12:00am 3.5 -0.1 2.8 95 0.3 ESE 11 13 6 7 1023.0 1023.1 0.0
 
Date/Time
EST
Temp
°C
App
Temp
°C
Dew
Point
Rel
Hum
%
Delta-T
°C
Wind Press
QNH
hPa
Press
MSL
hPa
Rain
since 9 am
mm
Dir
 
Spd
km/h
Gust
km/h
Spd
kts
Gust
kts
22/11:30pm 3.6 0.3 2.6 93 0.4 ESE 9 9 5 5 1023.5 - 0.0
22/11:00pm 3.9 1.0 2.4 90 0.6 ESE 7 9 4 5 1023.5 1023.6 0.0
22/10:30pm 4.5 1.5 2.2 85 0.9 E 7 9 4 5 1023.7 - 0.0
22/10:00pm 5.0 1.2 1.7 79 1.3 ESE 11 13 6 7 1023.6 1023.7 0.0
22/09:30pm 5.8 1.9 1.2 72 1.8 ESE 11 13 6 7 1023.9 - 0.0
22/09:00pm 5.8 2.2 0.7 70 2.0 SE 9 11 5 6 1024.0 1024.1 0.0
22/08:30pm 6.1 2.6 1.0 70 2.0 SE 9 11 5 6 1024.2 - 0.0
22/08:00pm 6.9 3.3 0.5 64 2.5 SE 9 13 5 7 1024.0 1024.1 0.0
22/07:30pm 7.6 4.1 1.1 63 2.6 SSE 9 13 5 7 1024.0 - 0.0
22/07:00pm 8.0 4.6 1.6 64 2.6 SSE 9 9 5 5 1023.8 1023.9 0.0
22/06:30pm 9.2 5.8 1.7 59 3.1 SSE 9 11 5 6 1023.4 - 0.0
22/06:00pm 10.7 7.7 1.9 54 3.7 SSE 7 9 4 5 1023.5 1023.6 0.0
22/05:30pm 12.5 9.0 1.1 45 4.8 SSE 9 11 5 6 1023.3 - 0.0
22/05:00pm 14.2 10.4 -0.9 35 6.2 SE 9 13 5 7 1023.3 1023.4 0.0
22/04:30pm 14.7 9.7 -1.2 33 6.5 ESE 15 20 8 11 1022.7 - 0.0
22/04:00pm 15.1 10.5 -1.2 32 6.7 E 13 19 7 10 1023.0 1023.1 0.0
22/03:30pm 15.5 11.4 -0.1 34 6.6 SSE 11 15 6 8 1023.2 - 0.0
22/03:00pm 15.5 10.7 -2.4 29 7.2 ESE 13 20 7 11 1023.3 1023.4 0.0
22/02:30pm 15.4 10.6 -2.6 29 7.2 SE 13 20 7 11 1023.4 - 0.0
22/02:00pm 14.9 10.7 -0.8 34 6.5 E 11 19 6 10 1023.5 1023.6 0.0
22/01:30pm 14.8 10.3 -3.0 29 7.0 SE 11 17 6 9 1023.8 - 0.0
22/01:00pm 14.6 10.6 -2.5 30 6.8 SE 9 15 5 8 1024.3 1024.4 0.0
22/12:30pm 13.9 10.1 -0.4 37 5.9 SE 9 13 5 7 1024.8 - 0.0
22/12:00pm 13.3 9.5 -1.0 37 5.8 E 9 13 5 7 1025.4 1025.5 0.0
22/11:30am 12.2 8.7 1.0 46 4.7 E 9 15 5 8 1025.9 - 0.0
22/11:00am 11.4 8.6 3.1 56 3.6 E 7 11 4 6 1026.4 1026.5 0.0
22/10:30am 10.1 6.3 3.7 64 2.8 E 13 17 7 9 1026.6 - 0.0
22/10:00am 8.6 6.0 4.2 74 1.9 E 7 11 4 6 1026.7 1026.8 0.0
22/09:30am 6.2 3.5 3.6 83 1.1 E 7 9 4 5 1026.6 - 0.0
22/09:00am 4.6 1.8 3.1 90 0.6 ENE 7 9 4 5 1026.5 1026.6 0.0
22/08:30am 2.5 0.4 1.7 94 0.3 E 2 7 1 4 1026.1 - 0.0
22/08:25am 2.3 0.6 1.8 96 0.2 CALM 0 0 0 0 1026.1 - 0.0
22/08:00am 0.6 -2.7 -0.2 94 0.3 ESE 7 9 4 5 1025.7 1025.8 0.0
22/07:30am -0.3 -3.7 -0.6 98 0.1 SE 7 9 4 5 1025.3 - 0.0
22/07:00am -0.4 -3.8 -0.7 98 0.1 SSE 7 7 4 4 1024.8 1024.9 0.0
22/06:30am 0.3 -2.5 -0.3 96 0.2 SE 4 6 2 3 1024.6 - 0.0
22/06:00am -0.2 -3.7 -1.1 94 0.3 ESE 7 9 4 5 1024.4 1024.5 0.0
22/05:30am 0.8 -1.1 0.8 100 0.0 CALM 0 0 0 0 1024.4 - 0.0
22/05:00am 0.7 -1.3 0.1 96 0.2 CALM 0 0 0 0 1024.2 1024.3 0.0
22/04:46am 0.7 -1.3 0.1 96 0.2 CALM 0 0 0 0 1024.1 - 0.0
22/04:30am 0.5 -1.5 -0.1 96 0.2 CALM 0 4 0 2 1024.0 - 0.0
22/04:25am 0.4 -1.9 0.1 98 0.1 SE 2 6 1 3 1024.0 - 0.0
22/04:00am 1.0 -2.0 0.5 96 0.2 SE 6 7 3 4 1023.9 1024.0 0.0
22/03:30am 0.9 -1.0 0.6 98 0.1 CALM 0 0 0 0 1024.0 - 0.0
22/03:00am 2.0 0.2 1.2 94 0.3 CALM 0 4 0 2 1024.0 1024.1 0.0
22/02:30am 2.3 -1.2 1.2 92 0.4 E 9 9 5 5 1024.0 - 0.0
22/02:00am 2.6 0.9 1.8 94 0.3 CALM 0 0 0 0 1024.0 1024.1 0.0
22/01:30am 4.2 0.9 2.2 87 0.8 E 9 13 5 7 1023.9 - 0.0
22/01:00am 4.5 0.8 2.2 85 0.9 E 11 13 6 7 1023.9 1024.0 0.0
22/12:30am 4.4 1.5 2.7 89 0.7 E 7 9 4 5 1024.1 - 0.0
22/12:00am 4.9 1.9 2.1 82 1.1 E 7 9 4 5 1024.3 1024.4 0.0
 
Date/Time
EST
Temp
°C
App
Temp
°C
Dew
Point
Rel
Hum
%
Delta-T
°C
Wind Press
QNH
hPa
Press
MSL
hPa
Rain
since 9 am
mm
Dir
 
Spd
km/h
Gust
km/h
Spd
kts
Gust
kts
21/11:30pm 5.7 2.4 2.2 78 1.4 E 9 13 5 7 1024.1 - 0.0
21/11:00pm 6.0 2.7 2.6 79 1.4 E 9 9 5 5 1024.4 1024.5 0.0
21/10:30pm 6.1 3.3 3.0 80 1.3 E 7 9 4 5 1024.5 - 0.0
21/10:00pm 6.9 4.0 2.8 75 1.7 E 7 9 4 5 1024.5 1024.6 0.0
21/09:30pm 7.7 4.8 2.7 70 2.1 ESE 7 9 4 5 1024.4 - 0.0
21/09:00pm 8.7 5.8 2.8 66 2.5 E 7 9 4 5 1024.2 1024.3 0.0
21/08:30pm 9.3 6.4 2.7 63 2.8 E 7 9 4 5 1023.9 - 0.0
21/08:00pm 9.6 5.9 2.2 60 3.1 E 11 19 6 10 1023.4 1023.5 0.0
21/07:30pm 10.3 6.5 2.0 56 3.5 E 11 15 6 8 1023.3 - 0.0
21/07:00pm 10.6 6.7 0.9 51 4.0 ESE 11 13 6 7 1023.1 1023.2 0.0
21/06:30pm 11.6 8.0 0.7 47 4.5 E 9 13 5 7 1022.8 - 0.0
21/06:00pm 12.3 8.7 0.5 44 4.9 ESE 9 13 5 7 1022.6 1022.7 0.0
21/05:30pm 13.2 9.2 0.6 42 5.3 ESE 11 13 6 7 1022.5 - 0.0
21/05:00pm 14.1 10.5 0.7 40 5.7 ESE 9 13 5 7 1022.4 1022.5 0.0
21/04:30pm 14.7 11.5 0.6 38 6.0 ESE 7 9 4 5 1022.3 - 0.0
21/04:00pm 15.9 12.3 0.6 35 6.6 NNE 9 11 5 6 1022.3 1022.4 0.0
21/03:30pm 16.1 12.5 0.6 35 6.7 NNE 9 15 5 8 1022.3 - 0.0
21/03:00pm 17.0 13.4 0.7 33 7.1 NNE 9 13 5 7 1022.3 1022.4 0.0
21/02:30pm 15.6 12.6 1.1 37 6.3 NNE 6 13 3 7 1022.4 - 0.0
21/02:00pm 15.5 12.4 1.2 38 6.2 NE 7 15 4 8 1022.4 1022.5 0.0
21/01:30pm 15.6 11.7 1.4 38 6.2 NE 11 17 6 9 1022.7 - 0.0
21/01:00pm 15.0 10.7 1.1 39 6.0 NNE 13 20 7 11 1023.2 1023.3 0.0
21/12:30pm 14.8 11.1 2.4 43 5.5 NE 11 17 6 9 1023.6 - 0.0
21/12:00pm 12.9 9.5 3.8 54 4.1 ENE 11 17 6 9 1024.2 1024.3 0.0
21/11:30am 12.2 8.4 3.7 56 3.8 NE 13 17 7 9 1024.7 - 0.0
21/11:00am 12.1 8.2 3.5 55 3.8 NE 13 17 7 9 1025.1 1025.2 0.0
21/10:30am 10.5 6.7 3.9 63 2.9 NE 13 19 7 10 1025.4 - 0.0

Other Formats:

Comma delimited format used in spreadsheet applications
http://www.bom.gov.au/fwo/IDV60801/IDV60801.94693.axf

JavaScript Object Notation format (JSON) in row-major order
http://www.bom.gov.au/fwo/IDV60801/IDV60801.94693.json